sensor_id;sensor_type;location;lat;lon;timestamp;P1;durP1;ratioP1;P2;durP2;ratioP2
70253;SDS011;57649;42.968;1.608;2023-04-15T00:02:24;8.88;;;2.88;;
70253;SDS011;57649;42.968;1.608;2023-04-15T00:04:49;10.85;;;2.25;;
70253;SDS011;57649;42.968;1.608;2023-04-15T00:07:15;12.13;;;2.47;;
70253;SDS011;57649;42.968;1.608;2023-04-15T00:09:40;7.13;;;2.50;;
70253;SDS011;57649;42.968;1.608;2023-04-15T00:12:07;10.25;;;2.45;;
70253;SDS011;57649;42.968;1.608;2023-04-15T00:14:33;8.90;;;2.25;;
70253;SDS011;57649;42.968;1.608;2023-04-15T00:17:00;9.05;;;2.55;;
70253;SDS011;57649;42.968;1.608;2023-04-15T00:19:26;7.57;;;2.50;;
70253;SDS011;57649;42.968;1.608;2023-04-15T00:21:51;6.88;;;2.22;;
70253;SDS011;57649;42.968;1.608;2023-04-15T00:24:17;9.27;;;2.10;;
70253;SDS011;57649;42.968;1.608;2023-04-15T00:26:42;9.60;;;2.22;;
70253;SDS011;57649;42.968;1.608;2023-04-15T00:29:07;7.00;;;1.75;;
70253;SDS011;57649;42.968;1.608;2023-04-15T00:31:33;4.40;;;1.48;;
70253;SDS011;57649;42.968;1.608;2023-04-15T00:33:58;4.90;;;1.30;;
70253;SDS011;57649;42.968;1.608;2023-04-15T00:36:24;6.93;;;1.58;;
70253;SDS011;57649;42.968;1.608;2023-04-15T00:38:50;4.80;;;1.52;;
70253;SDS011;57649;42.968;1.608;2023-04-15T00:41:15;6.13;;;1.48;;
70253;SDS011;57649;42.968;1.608;2023-04-15T00:43:43;9.88;;;1.75;;
70253;SDS011;57649;42.968;1.608;2023-04-15T00:46:08;8.13;;;1.70;;
70253;SDS011;57649;42.968;1.608;2023-04-15T00:48:36;10.55;;;2.20;;
70253;SDS011;57649;42.968;1.608;2023-04-15T00:51:03;7.32;;;1.95;;
70253;SDS011;57649;42.968;1.608;2023-04-15T00:53:28;9.40;;;2.20;;
70253;SDS011;57649;42.968;1.608;2023-04-15T00:55:54;9.98;;;2.88;;
70253;SDS011;57649;42.968;1.608;2023-04-15T00:58:20;9.45;;;2.17;;
70253;SDS011;57649;42.968;1.608;2023-04-15T01:00:45;11.63;;;2.75;;
70253;SDS011;57649;42.968;1.608;2023-04-15T01:03:12;9.32;;;2.00;;
70253;SDS011;57649;42.968;1.608;2023-04-15T01:05:38;14.10;;;2.78;;
70253;SDS011;57649;42.968;1.608;2023-04-15T01:08:04;13.40;;;2.70;;
70253;SDS011;57649;42.968;1.608;2023-04-15T01:10:30;11.50;;;2.67;;
70253;SDS011;57649;42.968;1.608;2023-04-15T01:12:55;13.77;;;2.75;;
70253;SDS011;57649;42.968;1.608;2023-04-15T01:15:22;16.35;;;3.60;;
70253;SDS011;57649;42.968;1.608;2023-04-15T01:17:48;11.45;;;2.80;;
70253;SDS011;57649;42.968;1.608;2023-04-15T01:20:14;12.00;;;2.78;;
70253;SDS011;57649;42.968;1.608;2023-04-15T01:22:40;10.80;;;2.97;;
70253;SDS011;57649;42.968;1.608;2023-04-15T01:25:09;14.90;;;2.78;;
70253;SDS011;57649;42.968;1.608;2023-04-15T01:27:39;14.98;;;3.03;;
70253;SDS011;57649;42.968;1.608;2023-04-15T01:30:06;15.13;;;2.60;;
70253;SDS011;57649;42.968;1.608;2023-04-15T01:32:32;14.15;;;4.18;;
70253;SDS011;57649;42.968;1.608;2023-04-15T01:34:58;13.27;;;2.83;;
70253;SDS011;57649;42.968;1.608;2023-04-15T01:37:23;11.70;;;2.83;;
70253;SDS011;57649;42.968;1.608;2023-04-15T01:39:50;13.50;;;3.30;;
70253;SDS011;57649;42.968;1.608;2023-04-15T01:42:15;13.82;;;3.35;;
70253;SDS011;57649;42.968;1.608;2023-04-15T01:44:41;12.43;;;3.00;;
70253;SDS011;57649;42.968;1.608;2023-04-15T01:47:06;10.13;;;2.58;;
70253;SDS011;57649;42.968;1.608;2023-04-15T01:49:32;12.63;;;2.72;;
70253;SDS011;57649;42.968;1.608;2023-04-15T01:51:58;16.08;;;3.38;;
70253;SDS011;57649;42.968;1.608;2023-04-15T01:54:24;12.85;;;3.47;;
70253;SDS011;57649;42.968;1.608;2023-04-15T01:56:50;12.65;;;2.65;;
70253;SDS011;57649;42.968;1.608;2023-04-15T01:59:16;14.57;;;3.33;;
70253;SDS011;57649;42.968;1.608;2023-04-15T02:01:41;14.68;;;2.38;;
70253;SDS011;57649;42.968;1.608;2023-04-15T02:04:07;10.23;;;2.20;;
70253;SDS011;57649;42.968;1.608;2023-04-15T02:06:40;9.93;;;2.58;;
70253;SDS011;57649;42.968;1.608;2023-04-15T02:09:06;10.82;;;2.40;;
70253;SDS011;57649;42.968;1.608;2023-04-15T02:11:32;8.63;;;2.17;;
70253;SDS011;57649;42.968;1.608;2023-04-15T02:13:59;6.57;;;2.08;;
70253;SDS011;57649;42.968;1.608;2023-04-15T02:16:24;9.93;;;2.15;;
70253;SDS011;57649;42.968;1.608;2023-04-15T02:18:50;6.68;;;2.15;;
70253;SDS011;57649;42.968;1.608;2023-04-15T02:21:16;9.07;;;2.10;;
70253;SDS011;57649;42.968;1.608;2023-04-15T02:23:42;8.60;;;2.15;;
70253;SDS011;57649;42.968;1.608;2023-04-15T02:26:08;8.30;;;1.90;;
70253;SDS011;57649;42.968;1.608;2023-04-15T02:28:34;12.20;;;1.90;;
70253;SDS011;57649;42.968;1.608;2023-04-15T02:30:59;8.75;;;2.10;;
70253;SDS011;57649;42.968;1.608;2023-04-15T02:33:26;9.85;;;2.20;;
70253;SDS011;57649;42.968;1.608;2023-04-15T02:35:51;6.70;;;1.70;;
70253;SDS011;57649;42.968;1.608;2023-04-15T02:38:17;9.10;;;2.05;;
70253;SDS011;57649;42.968;1.608;2023-04-15T02:40:42;11.65;;;2.58;;
70253;SDS011;57649;42.968;1.608;2023-04-15T02:43:08;10.70;;;2.22;;
70253;SDS011;57649;42.968;1.608;2023-04-15T02:45:33;10.32;;;2.08;;
70253;SDS011;57649;42.968;1.608;2023-04-15T02:47:59;8.45;;;2.30;;
70253;SDS011;57649;42.968;1.608;2023-04-15T02:50:27;8.52;;;2.40;;
70253;SDS011;57649;42.968;1.608;2023-04-15T02:52:53;10.45;;;2.55;;
70253;SDS011;57649;42.968;1.608;2023-04-15T02:55:18;10.77;;;2.30;;
70253;SDS011;57649;42.968;1.608;2023-04-15T02:57:44;9.45;;;1.92;;
70253;SDS011;57649;42.968;1.608;2023-04-15T03:00:09;8.27;;;2.08;;
70253;SDS011;57649;42.968;1.608;2023-04-15T03:02:38;10.55;;;2.38;;
70253;SDS011;57649;42.968;1.608;2023-04-15T03:07:31;7.13;;;1.52;;
70253;SDS011;57649;42.968;1.608;2023-04-15T03:09:57;11.57;;;2.10;;
70253;SDS011;57649;42.968;1.608;2023-04-15T03:12:22;8.05;;;1.90;;
70253;SDS011;57649;42.968;1.608;2023-04-15T03:14:47;10.00;;;2.20;;
70253;SDS011;57649;42.968;1.608;2023-04-15T03:17:13;7.93;;;1.85;;
70253;SDS011;57649;42.968;1.608;2023-04-15T03:19:38;8.10;;;2.55;;
70253;SDS011;57649;42.968;1.608;2023-04-15T03:22:03;12.70;;;2.50;;
70253;SDS011;57649;42.968;1.608;2023-04-15T03:24:29;10.15;;;2.15;;
70253;SDS011;57649;42.968;1.608;2023-04-15T03:26:55;8.52;;;2.35;;
70253;SDS011;57649;42.968;1.608;2023-04-15T03:29:22;12.57;;;2.42;;
70253;SDS011;57649;42.968;1.608;2023-04-15T03:31:47;9.50;;;2.38;;
70253;SDS011;57649;42.968;1.608;2023-04-15T03:34:12;15.57;;;3.03;;
70253;SDS011;57649;42.968;1.608;2023-04-15T03:36:38;12.65;;;3.42;;
70253;SDS011;57649;42.968;1.608;2023-04-15T03:39:03;9.07;;;2.20;;
70253;SDS011;57649;42.968;1.608;2023-04-15T03:41:29;11.90;;;2.10;;
70253;SDS011;57649;42.968;1.608;2023-04-15T03:43:55;12.07;;;2.50;;
70253;SDS011;57649;42.968;1.608;2023-04-15T03:46:20;12.90;;;2.60;;
70253;SDS011;57649;42.968;1.608;2023-04-15T03:48:46;11.07;;;2.15;;
70253;SDS011;57649;42.968;1.608;2023-04-15T03:51:12;10.15;;;2.67;;
70253;SDS011;57649;42.968;1.608;2023-04-15T03:53:38;9.60;;;2.25;;
70253;SDS011;57649;42.968;1.608;2023-04-15T03:56:03;6.93;;;1.88;;
70253;SDS011;57649;42.968;1.608;2023-04-15T03:58:29;8.23;;;1.75;;
70253;SDS011;57649;42.968;1.608;2023-04-15T04:00:54;8.20;;;2.00;;
70253;SDS011;57649;42.968;1.608;2023-04-15T04:03:20;8.05;;;2.25;;
70253;SDS011;57649;42.968;1.608;2023-04-15T04:05:45;7.60;;;1.90;;
70253;SDS011;57649;42.968;1.608;2023-04-15T04:08:11;8.57;;;1.70;;
70253;SDS011;57649;42.968;1.608;2023-04-15T04:10:38;7.20;;;1.67;;
70253;SDS011;57649;42.968;1.608;2023-04-15T04:13:04;9.10;;;1.75;;
70253;SDS011;57649;42.968;1.608;2023-04-15T04:15:29;10.95;;;1.85;;
70253;SDS011;57649;42.968;1.608;2023-04-15T04:17:55;9.10;;;1.80;;
70253;SDS011;57649;42.968;1.608;2023-04-15T04:20:20;8.50;;;1.95;;
70253;SDS011;57649;42.968;1.608;2023-04-15T04:22:46;8.27;;;1.67;;
70253;SDS011;57649;42.968;1.608;2023-04-15T04:25:11;9.20;;;2.40;;
70253;SDS011;57649;42.968;1.608;2023-04-15T04:27:36;6.55;;;1.55;;
70253;SDS011;57649;42.968;1.608;2023-04-15T04:30:02;6.13;;;1.90;;
70253;SDS011;57649;42.968;1.608;2023-04-15T04:32:28;7.93;;;1.63;;
70253;SDS011;57649;42.968;1.608;2023-04-15T04:34:54;9.45;;;2.30;;
70253;SDS011;57649;42.968;1.608;2023-04-15T04:37:20;8.63;;;1.77;;
70253;SDS011;57649;42.968;1.608;2023-04-15T04:39:47;7.60;;;1.90;;
70253;SDS011;57649;42.968;1.608;2023-04-15T04:42:12;8.50;;;2.22;;
70253;SDS011;57649;42.968;1.608;2023-04-15T04:44:38;9.13;;;2.00;;
70253;SDS011;57649;42.968;1.608;2023-04-15T04:47:03;12.25;;;2.92;;
70253;SDS011;57649;42.968;1.608;2023-04-15T04:49:28;8.80;;;2.22;;
70253;SDS011;57649;42.968;1.608;2023-04-15T04:51:54;6.40;;;1.75;;
70253;SDS011;57649;42.968;1.608;2023-04-15T04:54:20;7.25;;;1.83;;
70253;SDS011;57649;42.968;1.608;2023-04-15T04:56:46;6.72;;;2.22;;
70253;SDS011;57649;42.968;1.608;2023-04-15T04:59:11;11.82;;;2.70;;
70253;SDS011;57649;42.968;1.608;2023-04-15T05:01:37;9.93;;;2.17;;
70253;SDS011;57649;42.968;1.608;2023-04-15T05:04:02;6.95;;;1.73;;
70253;SDS011;57649;42.968;1.608;2023-04-15T05:06:29;9.18;;;2.35;;
70253;SDS011;57649;42.968;1.608;2023-04-15T05:08:55;8.25;;;2.42;;
70253;SDS011;57649;42.968;1.608;2023-04-15T05:11:20;9.02;;;1.70;;
70253;SDS011;57649;42.968;1.608;2023-04-15T05:13:46;6.80;;;1.80;;
70253;SDS011;57649;42.968;1.608;2023-04-15T05:16:11;7.95;;;1.65;;
70253;SDS011;57649;42.968;1.608;2023-04-15T05:18:36;6.13;;;1.70;;
70253;SDS011;57649;42.968;1.608;2023-04-15T05:21:02;6.32;;;1.73;;
70253;SDS011;57649;42.968;1.608;2023-04-15T05:23:27;9.20;;;2.10;;
70253;SDS011;57649;42.968;1.608;2023-04-15T05:25:53;6.28;;;1.52;;
70253;SDS011;57649;42.968;1.608;2023-04-15T05:28:18;6.13;;;1.80;;
70253;SDS011;57649;42.968;1.608;2023-04-15T05:30:44;7.25;;;1.90;;
70253;SDS011;57649;42.968;1.608;2023-04-15T05:33:09;6.18;;;1.73;;
70253;SDS011;57649;42.968;1.608;2023-04-15T05:35:35;7.60;;;1.60;;
70253;SDS011;57649;42.968;1.608;2023-04-15T05:38:01;5.30;;;1.42;;
70253;SDS011;57649;42.968;1.608;2023-04-15T05:40:26;9.00;;;2.00;;
70253;SDS011;57649;42.968;1.608;2023-04-15T05:42:52;11.45;;;2.65;;
70253;SDS011;57649;42.968;1.608;2023-04-15T05:45:17;7.90;;;2.58;;
70253;SDS011;57649;42.968;1.608;2023-04-15T05:47:43;9.95;;;3.33;;
70253;SDS011;57649;42.968;1.608;2023-04-15T05:50:08;7.68;;;3.13;;
70253;SDS011;57649;42.968;1.608;2023-04-15T05:52:34;8.50;;;2.78;;
70253;SDS011;57649;42.968;1.608;2023-04-15T05:54:59;11.25;;;3.10;;
70253;SDS011;57649;42.968;1.608;2023-04-15T05:57:25;9.35;;;2.75;;
70253;SDS011;57649;42.968;1.608;2023-04-15T05:59:50;8.80;;;2.67;;
70253;SDS011;57649;42.968;1.608;2023-04-15T06:02:16;5.78;;;2.10;;
70253;SDS011;57649;42.968;1.608;2023-04-15T06:04:42;7.32;;;2.00;;
70253;SDS011;57649;42.968;1.608;2023-04-15T06:07:08;7.97;;;2.08;;
70253;SDS011;57649;42.968;1.608;2023-04-15T06:09:33;6.95;;;1.90;;
70253;SDS011;57649;42.968;1.608;2023-04-15T06:11:59;7.13;;;1.90;;
70253;SDS011;57649;42.968;1.608;2023-04-15T06:14:25;7.80;;;1.88;;
70253;SDS011;57649;42.968;1.608;2023-04-15T06:16:51;6.10;;;1.75;;
70253;SDS011;57649;42.968;1.608;2023-04-15T06:19:16;6.07;;;1.60;;
70253;SDS011;57649;42.968;1.608;2023-04-15T06:21:42;6.75;;;1.67;;
70253;SDS011;57649;42.968;1.608;2023-04-15T06:24:08;5.82;;;1.50;;
70253;SDS011;57649;42.968;1.608;2023-04-15T06:26:33;6.60;;;1.30;;
70253;SDS011;57649;42.968;1.608;2023-04-15T06:28:59;5.40;;;1.30;;
70253;SDS011;57649;42.968;1.608;2023-04-15T06:31:24;5.07;;;1.50;;
70253;SDS011;57649;42.968;1.608;2023-04-15T06:33:50;7.68;;;1.20;;
70253;SDS011;57649;42.968;1.608;2023-04-15T06:36:16;4.72;;;1.20;;
70253;SDS011;57649;42.968;1.608;2023-04-15T06:38:41;5.93;;;1.05;;
70253;SDS011;57649;42.968;1.608;2023-04-15T06:41:07;5.65;;;1.20;;
70253;SDS011;57649;42.968;1.608;2023-04-15T06:43:32;2.78;;;1.00;;
70253;SDS011;57649;42.968;1.608;2023-04-15T06:45:58;5.60;;;1.25;;
70253;SDS011;57649;42.968;1.608;2023-04-15T06:48:23;3.60;;;1.00;;
70253;SDS011;57649;42.968;1.608;2023-04-15T06:50:48;4.80;;;1.30;;
70253;SDS011;57649;42.968;1.608;2023-04-15T06:53:14;3.42;;;1.00;;
70253;SDS011;57649;42.968;1.608;2023-04-15T06:55:40;4.78;;;1.30;;
70253;SDS011;57649;42.968;1.608;2023-04-15T06:58:05;3.05;;;1.08;;
70253;SDS011;57649;42.968;1.608;2023-04-15T07:00:31;5.00;;;1.05;;
70253;SDS011;57649;42.968;1.608;2023-04-15T07:02:57;4.60;;;1.20;;
70253;SDS011;57649;42.968;1.608;2023-04-15T07:05:27;5.85;;;1.27;;
70253;SDS011;57649;42.968;1.608;2023-04-15T07:07:53;7.85;;;1.50;;
70253;SDS011;57649;42.968;1.608;2023-04-15T07:10:18;6.63;;;1.42;;
70253;SDS011;57649;42.968;1.608;2023-04-15T07:12:44;4.88;;;1.38;;
70253;SDS011;57649;42.968;1.608;2023-04-15T07:15:09;7.68;;;1.73;;
70253;SDS011;57649;42.968;1.608;2023-04-15T07:17:35;3.20;;;1.25;;
70253;SDS011;57649;42.968;1.608;2023-04-15T07:20:01;6.32;;;1.50;;
70253;SDS011;57649;42.968;1.608;2023-04-15T07:22:26;4.60;;;1.80;;
70253;SDS011;57649;42.968;1.608;2023-04-15T07:24:52;8.52;;;1.50;;
70253;SDS011;57649;42.968;1.608;2023-04-15T07:27:17;3.45;;;1.30;;
70253;SDS011;57649;42.968;1.608;2023-04-15T07:29:42;6.60;;;1.45;;
70253;SDS011;57649;42.968;1.608;2023-04-15T07:32:08;6.60;;;1.42;;
70253;SDS011;57649;42.968;1.608;2023-04-15T07:34:34;7.18;;;1.58;;
70253;SDS011;57649;42.968;1.608;2023-04-15T07:37:00;7.80;;;1.92;;
70253;SDS011;57649;42.968;1.608;2023-04-15T07:39:26;4.93;;;1.70;;
70253;SDS011;57649;42.968;1.608;2023-04-15T07:41:51;5.90;;;1.50;;
70253;SDS011;57649;42.968;1.608;2023-04-15T07:44:16;5.88;;;1.50;;
70253;SDS011;57649;42.968;1.608;2023-04-15T07:46:42;8.60;;;2.40;;
70253;SDS011;57649;42.968;1.608;2023-04-15T07:49:07;5.22;;;1.33;;
70253;SDS011;57649;42.968;1.608;2023-04-15T07:51:33;7.03;;;1.40;;
70253;SDS011;57649;42.968;1.608;2023-04-15T07:53:58;3.47;;;1.10;;
70253;SDS011;57649;42.968;1.608;2023-04-15T07:56:24;5.50;;;1.52;;
70253;SDS011;57649;42.968;1.608;2023-04-15T07:58:50;4.10;;;1.10;;
70253;SDS011;57649;42.968;1.608;2023-04-15T08:01:15;5.65;;;1.52;;
70253;SDS011;57649;42.968;1.608;2023-04-15T08:03:41;7.63;;;1.77;;
70253;SDS011;57649;42.968;1.608;2023-04-15T08:06:07;3.80;;;1.33;;
70253;SDS011;57649;42.968;1.608;2023-04-15T08:08:32;4.50;;;1.60;;
70253;SDS011;57649;42.968;1.608;2023-04-15T08:10:57;3.25;;;1.13;;
70253;SDS011;57649;42.968;1.608;2023-04-15T08:13:25;3.60;;;1.17;;
70253;SDS011;57649;42.968;1.608;2023-04-15T08:15:52;4.10;;;1.20;;
70253;SDS011;57649;42.968;1.608;2023-04-15T08:18:38;5.60;;;1.70;;
70253;SDS011;57649;42.968;1.608;2023-04-15T08:21:04;6.68;;;1.77;;
70253;SDS011;57649;42.968;1.608;2023-04-15T08:23:30;6.95;;;1.60;;
70253;SDS011;57649;42.968;1.608;2023-04-15T08:25:56;5.88;;;1.85;;
70253;SDS011;57649;42.968;1.608;2023-04-15T08:28:21;6.57;;;1.80;;
70253;SDS011;57649;42.968;1.608;2023-04-15T08:30:47;7.40;;;2.08;;
70253;SDS011;57649;42.968;1.608;2023-04-15T08:33:13;5.28;;;2.45;;
70253;SDS011;57649;42.968;1.608;2023-04-15T08:35:38;8.13;;;1.60;;
70253;SDS011;57649;42.968;1.608;2023-04-15T08:38:03;10.18;;;5.55;;
70253;SDS011;57649;42.968;1.608;2023-04-15T08:40:31;8.15;;;5.35;;
70253;SDS011;57649;42.968;1.608;2023-04-15T08:43:04;5.30;;;2.03;;
70253;SDS011;57649;42.968;1.608;2023-04-15T08:45:33;3.28;;;1.30;;
70253;SDS011;57649;42.968;1.608;2023-04-15T08:48:01;4.25;;;1.60;;
70253;SDS011;57649;42.968;1.608;2023-04-15T08:50:28;4.75;;;1.30;;
70253;SDS011;57649;42.968;1.608;2023-04-15T08:52:56;4.63;;;1.20;;
70253;SDS011;57649;42.968;1.608;2023-04-15T08:55:24;3.70;;;1.40;;
70253;SDS011;57649;42.968;1.608;2023-04-15T08:57:53;2.60;;;1.10;;
70253;SDS011;57649;42.968;1.608;2023-04-15T09:00:20;3.30;;;1.50;;
70253;SDS011;57649;42.968;1.608;2023-04-15T09:02:47;3.53;;;0.90;;
70253;SDS011;57649;42.968;1.608;2023-04-15T09:05:12;4.32;;;1.30;;
70253;SDS011;57649;42.968;1.608;2023-04-15T09:07:50;3.58;;;1.20;;
70253;SDS011;57649;42.968;1.608;2023-04-15T09:10:16;3.30;;;1.20;;
70253;SDS011;57649;42.968;1.608;2023-04-15T09:12:41;2.47;;;0.90;;
70253;SDS011;57649;42.968;1.608;2023-04-15T09:15:08;2.75;;;0.85;;
70253;SDS011;57649;42.968;1.608;2023-04-15T09:17:41;3.03;;;1.00;;
70253;SDS011;57649;42.968;1.608;2023-04-15T09:20:11;2.88;;;0.80;;
70253;SDS011;57649;42.968;1.608;2023-04-15T09:22:41;2.78;;;0.88;;
70253;SDS011;57649;42.968;1.608;2023-04-15T09:27:46;3.22;;;1.08;;
70253;SDS011;57649;42.968;1.608;2023-04-15T09:30:16;3.40;;;1.13;;
70253;SDS011;57649;42.968;1.608;2023-04-15T09:32:57;2.72;;;0.90;;
70253;SDS011;57649;42.968;1.608;2023-04-15T09:35:26;2.05;;;0.90;;
70253;SDS011;57649;42.968;1.608;2023-04-15T09:37:52;2.13;;;0.88;;
70253;SDS011;57649;42.968;1.608;2023-04-15T09:40:39;1.98;;;0.80;;
70253;SDS011;57649;42.968;1.608;2023-04-15T09:43:06;2.28;;;0.80;;
70253;SDS011;57649;42.968;1.608;2023-04-15T09:45:33;1.95;;;1.10;;
70253;SDS011;57649;42.968;1.608;2023-04-15T09:48:16;3.30;;;1.27;;
70253;SDS011;57649;42.968;1.608;2023-04-15T09:50:47;2.55;;;1.17;;
70253;SDS011;57649;42.968;1.608;2023-04-15T09:53:17;4.20;;;1.10;;
70253;SDS011;57649;42.968;1.608;2023-04-15T09:55:45;2.38;;;0.98;;
70253;SDS011;57649;42.968;1.608;2023-04-15T09:58:20;2.77;;;1.00;;
70253;SDS011;57649;42.968;1.608;2023-04-15T10:00:47;3.55;;;0.95;;
70253;SDS011;57649;42.968;1.608;2023-04-15T10:03:17;2.33;;;0.70;;
70253;SDS011;57649;42.968;1.608;2023-04-15T10:05:45;2.05;;;0.70;;
70253;SDS011;57649;42.968;1.608;2023-04-15T10:08:13;2.33;;;1.23;;
70253;SDS011;57649;42.968;1.608;2023-04-15T10:10:40;3.63;;;1.05;;
70253;SDS011;57649;42.968;1.608;2023-04-15T10:13:05;3.03;;;1.08;;
70253;SDS011;57649;42.968;1.608;2023-04-15T10:15:32;3.67;;;0.95;;
70253;SDS011;57649;42.968;1.608;2023-04-15T10:17:58;3.22;;;1.00;;
70253;SDS011;57649;42.968;1.608;2023-04-15T10:20:25;3.47;;;1.10;;
70253;SDS011;57649;42.968;1.608;2023-04-15T10:22:53;2.50;;;1.00;;
70253;SDS011;57649;42.968;1.608;2023-04-15T10:25:18;1.73;;;0.65;;
70253;SDS011;57649;42.968;1.608;2023-04-15T10:27:45;1.30;;;0.70;;
70253;SDS011;57649;42.968;1.608;2023-04-15T10:30:12;1.95;;;1.33;;
70253;SDS011;57649;42.968;1.608;2023-04-15T10:32:38;1.67;;;0.90;;
70253;SDS011;57649;42.968;1.608;2023-04-15T10:35:04;2.03;;;1.00;;
70253;SDS011;57649;42.968;1.608;2023-04-15T10:37:39;0.90;;;0.70;;
70253;SDS011;57649;42.968;1.608;2023-04-15T10:40:26;1.23;;;0.63;;
70253;SDS011;57649;42.968;1.608;2023-04-15T10:42:55;2.47;;;1.35;;
70253;SDS011;57649;42.968;1.608;2023-04-15T10:45:21;1.80;;;1.05;;
70253;SDS011;57649;42.968;1.608;2023-04-15T10:47:55;1.02;;;0.60;;
70253;SDS011;57649;42.968;1.608;2023-04-15T10:50:26;1.75;;;0.75;;
70253;SDS011;57649;42.968;1.608;2023-04-15T10:52:54;1.38;;;0.70;;
70253;SDS011;57649;42.968;1.608;2023-04-15T10:55:21;1.10;;;0.65;;
70253;SDS011;57649;42.968;1.608;2023-04-15T10:57:52;1.95;;;1.17;;
70253;SDS011;57649;42.968;1.608;2023-04-15T11:00:19;2.80;;;1.10;;
70253;SDS011;57649;42.968;1.608;2023-04-15T11:02:58;2.65;;;1.20;;
70253;SDS011;57649;42.968;1.608;2023-04-15T11:05:48;3.20;;;1.45;;
70253;SDS011;57649;42.968;1.608;2023-04-15T11:08:15;2.33;;;1.33;;
70253;SDS011;57649;42.968;1.608;2023-04-15T11:15:38;2.05;;;1.45;;
70253;SDS011;57649;42.968;1.608;2023-04-15T11:20:52;2.67;;;2.08;;
70253;SDS011;57649;42.968;1.608;2023-04-15T11:23:30;2.70;;;1.75;;
70253;SDS011;57649;42.968;1.608;2023-04-15T11:25:58;2.55;;;1.10;;
70253;SDS011;57649;42.968;1.608;2023-04-15T11:28:25;4.10;;;1.45;;
70253;SDS011;57649;42.968;1.608;2023-04-15T11:30:52;2.60;;;1.30;;
70253;SDS011;57649;42.968;1.608;2023-04-15T11:33:18;2.97;;;1.20;;
70253;SDS011;57649;42.968;1.608;2023-04-15T11:35:43;3.90;;;1.70;;
70253;SDS011;57649;42.968;1.608;2023-04-15T11:38:10;3.55;;;1.30;;
70253;SDS011;57649;42.968;1.608;2023-04-15T11:40:38;2.83;;;1.20;;
70253;SDS011;57649;42.968;1.608;2023-04-15T11:43:04;1.60;;;0.80;;
70253;SDS011;57649;42.968;1.608;2023-04-15T11:45:33;2.47;;;1.30;;
70253;SDS011;57649;42.968;1.608;2023-04-15T11:48:05;2.53;;;0.80;;
70253;SDS011;57649;42.968;1.608;2023-04-15T11:50:35;3.88;;;1.35;;
70253;SDS011;57649;42.968;1.608;2023-04-15T11:53:03;2.45;;;1.00;;
70253;SDS011;57649;42.968;1.608;2023-04-15T11:55:30;2.47;;;0.77;;
70253;SDS011;57649;42.968;1.608;2023-04-15T11:58:06;2.85;;;0.93;;
70253;SDS011;57649;42.968;1.608;2023-04-15T12:00:33;4.15;;;0.90;;
70253;SDS011;57649;42.968;1.608;2023-04-15T12:11:25;4.18;;;1.45;;
70253;SDS011;57649;42.968;1.608;2023-04-15T12:16:29;3.58;;;0.95;;
70253;SDS011;57649;42.968;1.608;2023-04-15T12:18:58;5.13;;;1.52;;
70253;SDS011;57649;42.968;1.608;2023-04-15T12:21:25;6.38;;;1.10;;
70253;SDS011;57649;42.968;1.608;2023-04-15T12:23:52;3.70;;;1.10;;
70253;SDS011;57649;42.968;1.608;2023-04-15T12:26:26;5.72;;;1.48;;
70253;SDS011;57649;42.968;1.608;2023-04-15T12:28:53;4.25;;;1.42;;
70253;SDS011;57649;42.968;1.608;2023-04-15T12:31:20;4.93;;;1.25;;
70253;SDS011;57649;42.968;1.608;2023-04-15T12:33:47;5.70;;;1.27;;
70253;SDS011;57649;42.968;1.608;2023-04-15T12:36:13;3.28;;;1.10;;
70253;SDS011;57649;42.968;1.608;2023-04-15T12:38:39;4.32;;;1.30;;
70253;SDS011;57649;42.968;1.608;2023-04-15T12:41:04;4.68;;;1.58;;
70253;SDS011;57649;42.968;1.608;2023-04-15T12:43:30;3.95;;;0.90;;
70253;SDS011;57649;42.968;1.608;2023-04-15T12:45:55;2.67;;;0.90;;
70253;SDS011;57649;42.968;1.608;2023-04-15T12:48:20;3.08;;;1.15;;
70253;SDS011;57649;42.968;1.608;2023-04-15T12:50:46;5.13;;;1.20;;
70253;SDS011;57649;42.968;1.608;2023-04-15T12:53:11;4.43;;;0.90;;
70253;SDS011;57649;42.968;1.608;2023-04-15T12:55:37;3.90;;;0.90;;
70253;SDS011;57649;42.968;1.608;2023-04-15T12:58:02;3.47;;;1.00;;
70253;SDS011;57649;42.968;1.608;2023-04-15T13:00:28;5.72;;;1.33;;
70253;SDS011;57649;42.968;1.608;2023-04-15T13:02:53;11.82;;;5.03;;
70253;SDS011;57649;42.968;1.608;2023-04-15T13:05:19;2.90;;;0.70;;
70253;SDS011;57649;42.968;1.608;2023-04-15T13:07:44;5.38;;;1.50;;
70253;SDS011;57649;42.968;1.608;2023-04-15T13:10:10;4.95;;;1.70;;
70253;SDS011;57649;42.968;1.608;2023-04-15T13:12:35;4.10;;;1.08;;
70253;SDS011;57649;42.968;1.608;2023-04-15T13:15:01;6.30;;;1.25;;
70253;SDS011;57649;42.968;1.608;2023-04-15T13:17:28;3.05;;;1.27;;
70253;SDS011;57649;42.968;1.608;2023-04-15T13:19:53;6.05;;;1.13;;
70253;SDS011;57649;42.968;1.608;2023-04-15T13:22:18;2.47;;;0.82;;
70253;SDS011;57649;42.968;1.608;2023-04-15T13:24:44;4.60;;;1.00;;
70253;SDS011;57649;42.968;1.608;2023-04-15T13:27:10;4.78;;;1.17;;
70253;SDS011;57649;42.968;1.608;2023-04-15T13:29:35;3.15;;;0.95;;
70253;SDS011;57649;42.968;1.608;2023-04-15T13:32:01;8.93;;;1.10;;
70253;SDS011;57649;42.968;1.608;2023-04-15T13:34:26;6.80;;;1.35;;
70253;SDS011;57649;42.968;1.608;2023-04-15T13:36:51;3.70;;;1.20;;
70253;SDS011;57649;42.968;1.608;2023-04-15T13:39:17;3.92;;;1.08;;
70253;SDS011;57649;42.968;1.608;2023-04-15T13:41:42;4.60;;;1.42;;
70253;SDS011;57649;42.968;1.608;2023-04-15T13:44:08;12.07;;;3.53;;
70253;SDS011;57649;42.968;1.608;2023-04-15T13:46:33;6.63;;;1.50;;
70253;SDS011;57649;42.968;1.608;2023-04-15T13:48:58;3.33;;;1.15;;
70253;SDS011;57649;42.968;1.608;2023-04-15T13:51:24;9.60;;;1.50;;
70253;SDS011;57649;42.968;1.608;2023-04-15T13:53:50;5.05;;;1.30;;
70253;SDS011;57649;42.968;1.608;2023-04-15T13:56:16;7.50;;;1.70;;
70253;SDS011;57649;42.968;1.608;2023-04-15T13:58:43;8.43;;;2.55;;
70253;SDS011;57649;42.968;1.608;2023-04-15T14:01:08;7.32;;;1.58;;
70253;SDS011;57649;42.968;1.608;2023-04-15T14:03:34;6.07;;;1.45;;
70253;SDS011;57649;42.968;1.608;2023-04-15T14:06:00;3.33;;;1.20;;
70253;SDS011;57649;42.968;1.608;2023-04-15T14:08:25;6.45;;;1.30;;
70253;SDS011;57649;42.968;1.608;2023-04-15T14:10:51;5.13;;;1.48;;
70253;SDS011;57649;42.968;1.608;2023-04-15T14:13:16;7.30;;;1.48;;
70253;SDS011;57649;42.968;1.608;2023-04-15T14:15:43;4.68;;;0.90;;
70253;SDS011;57649;42.968;1.608;2023-04-15T14:18:08;10.30;;;1.38;;
70253;SDS011;57649;42.968;1.608;2023-04-15T14:20:34;4.00;;;1.25;;
70253;SDS011;57649;42.968;1.608;2023-04-15T14:22:59;4.70;;;1.25;;
70253;SDS011;57649;42.968;1.608;2023-04-15T14:25:25;4.70;;;1.40;;
70253;SDS011;57649;42.968;1.608;2023-04-15T14:27:51;4.00;;;1.20;;
70253;SDS011;57649;42.968;1.608;2023-04-15T14:30:16;5.13;;;1.30;;
70253;SDS011;57649;42.968;1.608;2023-04-15T14:32:42;8.18;;;1.90;;
70253;SDS011;57649;42.968;1.608;2023-04-15T14:35:07;8.20;;;1.80;;
70253;SDS011;57649;42.968;1.608;2023-04-15T14:37:33;5.05;;;1.27;;
70253;SDS011;57649;42.968;1.608;2023-04-15T14:39:58;6.43;;;1.40;;
70253;SDS011;57649;42.968;1.608;2023-04-15T14:42:23;3.83;;;1.35;;
70253;SDS011;57649;42.968;1.608;2023-04-15T14:44:49;4.80;;;1.20;;
70253;SDS011;57649;42.968;1.608;2023-04-15T14:47:14;7.25;;;1.45;;
70253;SDS011;57649;42.968;1.608;2023-04-15T14:49:40;3.90;;;1.48;;
70253;SDS011;57649;42.968;1.608;2023-04-15T14:52:05;6.63;;;1.50;;
70253;SDS011;57649;42.968;1.608;2023-04-15T14:54:31;4.47;;;1.20;;
70253;SDS011;57649;42.968;1.608;2023-04-15T14:56:57;4.50;;;1.60;;
70253;SDS011;57649;42.968;1.608;2023-04-15T14:59:22;6.68;;;1.67;;
70253;SDS011;57649;42.968;1.608;2023-04-15T15:01:47;4.95;;;1.20;;
70253;SDS011;57649;42.968;1.608;2023-04-15T15:04:13;4.22;;;1.38;;
70253;SDS011;57649;42.968;1.608;2023-04-15T15:06:39;6.38;;;1.40;;